首页
METAR-TAF:

METAR-TAF

机场 :

Grande Prairie, 艾伯塔, 加拿大

纬度: 55-11N, 经度: 118-53W, 海拔: 666米

当前天气观测

该预报发布于50分钟前的16:00 UTC
风速9节,风向西转西南
温度 -8°C
湿度 100%
气压 1015 hPa
能見度: 40.2公里
少量云层高于3000英尺

METAR: CYQU 281600Z 25009KT 25SM FEW030 M08/M08 A2998 RMK SC1 SC TR SLP196

时间: 09:50 (16:50 UTC)

预报

该预报发布于4小时和11分钟前的12:39 UTC
预报有效从28日的 13点(UTC)到 29日的 01点(UTC)
风速6节,风向西南
能見度: 10公里
散云层高于800英尺
多云层高于5000英尺
短暂存在
从 28日的 13点(UTC)到 28日的 15点(UTC)
能見度: 3.2公里
多云层高于800英尺
阴天层高于3000英尺
小雪, 轻雾
从 28日的 1500点(UTC)
风速8节,风向西转西南
能見度: 10公里
少量云层高于1000英尺
散云层高于5000英尺
从 28日的 1700点(UTC)
风速12节,风向西转西南
能見度: 10公里
天空无云

TAF: CYQU 281239Z 2813/2901 22006KT P6SM SCT008 BKN050 TEMPO 2813/2815 2SM -SN BR BKN008 OVC030 FM281500 24008KT P6SM FEW010 SCT050 FM281700 24012KT P6SM SKC RMK NXT FCST BY 281900Z

超过4000个机场的气象观测和天气预报(METAR&TAF报告)。

可查询的气象台以黄色和红色小点在地图上表示。

将鼠标移到小点上方,可查看气象台名称。

然后点击查看天气观测和预报。

如需切换地图:点击带黑十字的绿色按钮放大地图;点击带横线的绿色按钮缩小地图;或者点击绿色箭头查看邻近地区的地图。


METAR-TAF: